Terminal Aerodrome Forecast
Issued by NWS

Home | Current Version | Previous Version | Text Only | Print | Product List | Glossary On
Versions: 1 2 3 4 5 6 7 8 9 10 11 12 13 14
000
FTAK31 PAJN 292322
TAFAWG
TAF
PAWG 292322Z 3000/3024 VRB03KT P6SM -SHRA FEW005 BKN035 OVC060
     FM300600 VRB04KT P6SM BKN040 OVC060
     FM301200 VRB03KT P6SM BCFG SCT005 BKN060
     FM301800 10004KT P6SM VCSH OVC050
      AMD NOT SKED=

USA.gov is the U.S. government's official web portal to all federal, state and local government web resources and services.